createdAt,value
2022-11-08T00:00:47.999Z,7.13
2022-11-08T00:02:50.926Z,8.87
2022-11-08T00:04:53.848Z,6.83
2022-11-08T00:07:14.131Z,11.00
2022-11-08T00:09:35.734Z,9.03
2022-11-08T00:11:55.939Z,8.80
2022-11-08T00:13:59.246Z,9.10
2022-11-08T00:16:02.244Z,8.70
2022-11-08T00:18:05.677Z,7.90
2022-11-08T00:20:10.051Z,6.00
2022-11-08T00:22:20.914Z,8.03
2022-11-08T00:24:25.298Z,8.77
2022-11-08T00:26:28.639Z,8.90
2022-11-08T00:28:31.473Z,9.53
2022-11-08T00:30:34.298Z,7.00
2022-11-08T00:32:37.132Z,7.57
2022-11-08T00:34:40.042Z,8.27
2022-11-08T00:36:42.832Z,7.53
2022-11-08T00:38:45.877Z,8.83
2022-11-08T00:40:50.048Z,2.97
2022-11-08T00:42:52.873Z,6.43
2022-11-08T00:44:55.716Z,3.80
2022-11-08T00:46:58.540Z,4.87
2022-11-08T00:49:01.380Z,5.30
2022-11-08T00:51:04.936Z,5.67
2022-11-08T00:53:07.998Z,6.87
2022-11-08T00:55:10.801Z,7.00
2022-11-08T00:57:14.940Z,6.33
2022-11-08T00:59:20.131Z,8.00
2022-11-08T01:01:23.371Z,5.87
2022-11-08T01:03:27.050Z,9.67
2022-11-08T01:05:29.851Z,5.17
2022-11-08T01:07:32.742Z,7.73
2022-11-08T01:09:35.611Z,5.33
2022-11-08T01:11:45.179Z,12.67
2022-11-08T01:13:50.162Z,8.50
2022-11-08T01:15:53.280Z,8.80
2022-11-08T01:17:56.168Z,4.63
2022-11-08T01:19:58.964Z,5.70
2022-11-08T01:22:01.800Z,6.37
2022-11-08T01:24:04.856Z,7.93
2022-11-08T01:26:11.681Z,7.80
2022-11-08T01:28:15.176Z,8.83
2022-11-08T01:30:20.116Z,7.20
2022-11-08T01:32:22.978Z,5.07
2022-11-08T01:34:25.823Z,10.57
2022-11-08T01:36:29.598Z,10.23
2022-11-08T01:38:32.512Z,7.97
2022-11-08T01:40:36.006Z,8.40
2022-11-08T01:42:38.928Z,10.60
2022-11-08T01:44:58.099Z,6.13
2022-11-08T01:47:02.273Z,8.10
2022-11-08T01:49:29.651Z,7.47
2022-11-08T01:51:38.660Z,8.93
2022-11-08T01:53:41.988Z,7.50
2022-11-08T01:55:45.035Z,7.40
2022-11-08T01:57:50.487Z,11.80
2022-11-08T01:59:56.753Z,10.30
2022-11-08T02:02:00.388Z,9.97
2022-11-08T02:04:05.705Z,8.40
2022-11-08T02:06:09.989Z,5.80
2022-11-08T02:08:22.368Z,5.33
2022-11-08T02:10:30.659Z,8.57
2022-11-08T02:12:34.386Z,9.37
2022-11-08T02:14:38.403Z,9.10
2022-11-08T02:16:41.273Z,7.07
2022-11-08T02:18:46.605Z,8.13
2022-11-08T02:20:59.393Z,9.17
2022-11-08T02:23:10.181Z,6.13
2022-11-08T02:25:14.571Z,6.33
2022-11-08T02:27:17.692Z,7.33
2022-11-08T02:29:25.027Z,5.87
2022-11-08T02:31:27.833Z,5.20
2022-11-08T02:33:30.640Z,7.23
2022-11-08T02:35:33.570Z,11.03
2022-11-08T02:37:36.745Z,13.40
2022-11-08T02:39:39.555Z,8.30
2022-11-08T02:41:43.721Z,7.97
2022-11-08T02:43:46.591Z,5.67
2022-11-08T02:45:50.226Z,6.80
2022-11-08T02:47:53.095Z,8.70
2022-11-08T02:49:56.014Z,6.37
2022-11-08T02:51:58.953Z,8.53
2022-11-08T02:54:01.822Z,4.67
2022-11-08T02:56:04.867Z,8.73
2022-11-08T02:58:09.246Z,8.53
2022-11-08T03:00:13.747Z,9.63
2022-11-08T03:02:16.757Z,9.40
2022-11-08T03:04:19.791Z,8.53
2022-11-08T03:06:22.690Z,6.97
2022-11-08T03:08:25.595Z,10.23
2022-11-08T03:10:30.236Z,7.17
2022-11-08T03:12:33.183Z,9.40
2022-11-08T03:14:37.398Z,8.80
2022-11-08T03:16:40.258Z,7.37
2022-11-08T03:18:43.943Z,7.67
2022-11-08T03:20:46.975Z,9.93
2022-11-08T03:22:50.793Z,7.60
2022-11-08T03:24:53.752Z,7.03
2022-11-08T03:26:56.614Z,6.63
2022-11-08T03:28:59.588Z,8.33
2022-11-08T03:31:03.802Z,6.90
2022-11-08T03:33:06.813Z,8.43
2022-11-08T03:35:10.421Z,6.57
2022-11-08T03:37:13.573Z,7.37
2022-11-08T03:39:16.506Z,7.40
2022-11-08T03:41:19.914Z,6.53
2022-11-08T03:43:22.919Z,7.97
2022-11-08T03:45:25.860Z,8.17
2022-11-08T03:47:30.154Z,7.80
2022-11-08T03:49:33.055Z,9.30
2022-11-08T03:51:36.000Z,10.27
2022-11-08T03:53:38.901Z,6.77
2022-11-08T03:55:41.876Z,7.30
2022-11-08T03:57:46.763Z,10.33
2022-11-08T03:59:49.635Z,8.30
2022-11-08T04:01:52.700Z,6.03
2022-11-08T04:03:57.027Z,9.43
2022-11-08T04:06:01.252Z,7.17
2022-11-08T04:08:06.141Z,5.27
2022-11-08T04:10:10.758Z,9.40
2022-11-08T04:12:31.080Z,7.90
2022-11-08T04:14:51.462Z,9.03
2022-11-08T04:16:54.418Z,6.17
2022-11-08T04:19:16.238Z,9.23
2022-11-08T04:21:19.954Z,7.13
2022-11-08T04:23:22.841Z,4.47
2022-11-08T04:25:25.711Z,5.67
2022-11-08T04:27:28.568Z,5.87
2022-11-08T04:29:31.698Z,5.03
2022-11-08T04:31:35.071Z,7.87
2022-11-08T04:33:38.391Z,6.13
2022-11-08T04:35:42.639Z,8.73
2022-11-08T04:37:45.565Z,7.33
2022-11-08T04:39:48.451Z,4.57
2022-11-08T04:41:51.347Z,6.40
2022-11-08T04:43:56.099Z,5.23
2022-11-08T04:46:04.108Z,9.53
2022-11-08T04:48:07.679Z,8.63
2022-11-08T04:50:11.405Z,5.87
2022-11-08T04:52:16.721Z,7.67
2022-11-08T04:54:19.698Z,12.70
2022-11-08T04:56:23.092Z,7.57
2022-11-08T04:58:25.999Z,4.80
2022-11-08T05:00:29.004Z,8.47
2022-11-08T05:02:32.008Z,6.50
2022-11-08T05:04:35.030Z,11.67
2022-11-08T05:06:38.034Z,6.17
2022-11-08T05:08:42.686Z,5.80
2022-11-08T05:10:45.571Z,8.83
2022-11-08T05:12:48.468Z,6.80
2022-11-08T05:14:51.312Z,7.37
2022-11-08T05:16:54.179Z,8.53
2022-11-08T05:18:57.406Z,6.83
2022-11-08T05:21:19.731Z,11.80
2022-11-08T05:23:24.773Z,8.23
2022-11-08T05:25:29.128Z,6.03
2022-11-08T05:27:32.317Z,6.90
2022-11-08T05:29:38.641Z,6.93
2022-11-08T05:31:45.009Z,7.03
2022-11-08T05:33:48.365Z,7.00
2022-11-08T05:35:51.870Z,8.53
2022-11-08T05:37:54.992Z,11.73
2022-11-08T05:39:57.830Z,6.80
2022-11-08T05:42:02.027Z,5.93
2022-11-08T05:44:04.952Z,8.30
2022-11-08T05:46:08.163Z,10.00
2022-11-08T05:48:11.164Z,9.13
2022-11-08T05:50:19.253Z,5.87
2022-11-08T05:52:22.515Z,5.93
2022-11-08T05:54:25.503Z,5.83
2022-11-08T05:56:28.510Z,5.83
2022-11-08T05:58:34.275Z,5.70
2022-11-08T06:00:37.433Z,5.43
2022-11-08T06:02:40.471Z,7.00
2022-11-08T06:04:43.420Z,10.30
2022-11-08T06:06:46.313Z,9.17
2022-11-08T06:08:51.458Z,7.80
2022-11-08T06:10:55.124Z,9.03
2022-11-08T06:13:00.656Z,3.90
2022-11-08T06:15:05.469Z,13.67
2022-11-08T06:17:08.585Z,4.80
2022-11-08T06:19:11.461Z,9.17
2022-11-08T06:21:16.053Z,7.47
2022-11-08T06:23:19.532Z,6.97
2022-11-08T06:25:22.670Z,7.80
2022-11-08T06:27:25.668Z,6.63
2022-11-08T06:29:28.493Z,6.77
2022-11-08T06:31:32.655Z,7.27
2022-11-08T06:33:35.557Z,6.33
2022-11-08T06:35:38.888Z,7.07
2022-11-08T06:37:41.731Z,7.70
2022-11-08T06:39:44.835Z,6.43
2022-11-08T06:41:47.709Z,8.63
2022-11-08T06:43:50.584Z,8.13
2022-11-08T06:45:53.417Z,8.57
2022-11-08T06:47:59.814Z,14.57
2022-11-08T06:50:02.769Z,14.80
2022-11-08T06:52:05.816Z,19.10
2022-11-08T06:54:09.821Z,12.93
2022-11-08T06:56:14.098Z,10.67
2022-11-08T06:58:17.108Z,7.67
2022-11-08T07:00:20.691Z,8.70
2022-11-08T07:02:23.552Z,9.30
2022-11-08T07:04:27.862Z,6.63
2022-11-08T07:06:31.593Z,8.53
2022-11-08T07:08:35.296Z,8.43
2022-11-08T07:10:40.562Z,9.00
2022-11-08T07:12:43.415Z,8.00
2022-11-08T07:14:46.349Z,10.50
2022-11-08T07:16:49.158Z,5.93
2022-11-08T07:18:52.351Z,10.97
2022-11-08T07:20:59.951Z,15.13
2022-11-08T07:23:03.234Z,10.07
2022-11-08T07:25:07.100Z,7.00
2022-11-08T07:27:10.289Z,6.70
2022-11-08T07:29:15.925Z,10.37
2022-11-08T07:31:19.302Z,9.23
2022-11-08T07:33:22.427Z,7.13
2022-11-08T07:35:27.577Z,15.27
2022-11-08T07:37:32.896Z,7.27
2022-11-08T07:39:35.798Z,11.10
2022-11-08T07:41:38.685Z,9.73
2022-11-08T07:43:41.594Z,11.60
2022-11-08T07:45:44.556Z,8.60
2022-11-08T07:47:47.572Z,6.07
2022-11-08T07:49:50.438Z,5.10
2022-11-08T07:51:53.284Z,10.70
2022-11-08T07:54:02.611Z,6.47
2022-11-08T07:56:06.491Z,5.80
2022-11-08T07:58:11.361Z,6.83
2022-11-08T08:00:15.528Z,7.03
2022-11-08T08:02:18.472Z,8.17
2022-11-08T08:04:21.407Z,9.57
2022-11-08T08:06:24.611Z,7.87
2022-11-08T08:08:27.801Z,7.17
2022-11-08T08:10:32.896Z,11.57
2022-11-08T08:12:35.864Z,10.23
2022-11-08T08:14:38.741Z,6.60
2022-11-08T08:16:41.594Z,6.57
2022-11-08T08:18:45.065Z,7.30
2022-11-08T08:20:47.989Z,5.27
2022-11-08T08:22:52.655Z,6.17
2022-11-08T08:25:00.517Z,11.03
2022-11-08T08:27:07.204Z,6.00
2022-11-08T08:29:10.011Z,8.13
2022-11-08T08:31:12.958Z,8.30
2022-11-08T08:33:33.717Z,10.03
2022-11-08T08:35:37.137Z,7.20
2022-11-08T08:37:40.351Z,5.43
2022-11-08T08:39:43.248Z,5.87
2022-11-08T08:41:46.155Z,8.97
2022-11-08T08:43:50.407Z,6.30
2022-11-08T08:45:54.312Z,6.80
2022-11-08T08:47:58.644Z,7.57
2022-11-08T08:50:01.600Z,4.73
2022-11-08T08:52:04.708Z,6.70
2022-11-08T08:54:07.690Z,5.50
2022-11-08T08:56:10.799Z,4.13
2022-11-08T08:58:13.633Z,2.90
2022-11-08T09:02:42.730Z,4.47
2022-11-08T09:04:45.830Z,5.60
2022-11-08T09:06:48.807Z,4.03
2022-11-08T09:08:51.717Z,5.90
2022-11-08T09:10:55.552Z,7.80
2022-11-08T09:12:58.574Z,5.60
2022-11-08T09:15:01.756Z,4.67
2022-11-08T09:17:06.087Z,5.77
2022-11-08T09:19:09.067Z,4.33
2022-11-08T09:21:12.179Z,4.37
2022-11-08T09:23:17.619Z,6.03
2022-11-08T09:25:20.966Z,4.70
2022-11-08T09:27:23.951Z,5.13
2022-11-08T09:29:26.887Z,5.33
2022-11-08T09:31:29.934Z,4.43
2022-11-08T09:33:34.816Z,2.50
2022-11-08T09:35:37.740Z,3.57
2022-11-08T09:37:42.288Z,3.30
2022-11-08T09:39:47.153Z,5.50
2022-11-08T09:42:32.291Z,4.03
2022-11-08T09:44:52.300Z,6.30
2022-11-08T09:46:57.862Z,4.20
2022-11-08T09:49:04.412Z,3.50
2022-11-08T09:51:10.915Z,4.73
2022-11-08T09:53:20.186Z,3.00
2022-11-08T09:55:30.145Z,4.33
2022-11-08T09:57:38.749Z,4.73
2022-11-08T09:59:46.240Z,6.10
2022-11-08T10:01:50.304Z,2.23
2022-11-08T10:03:56.265Z,3.80
2022-11-08T10:06:48.091Z,4.37
2022-11-08T10:09:00.029Z,3.30
2022-11-08T10:11:21.002Z,3.83
2022-11-08T10:13:33.163Z,7.10
2022-11-08T10:15:41.381Z,3.40
2022-11-08T10:18:17.807Z,2.50
2022-11-08T10:20:27.264Z,5.23
2022-11-08T10:22:40.745Z,6.47
2022-11-08T10:24:55.173Z,4.03
2022-11-08T10:27:00.648Z,2.93
2022-11-08T10:29:09.715Z,4.77
2022-11-08T10:31:14.615Z,6.27
2022-11-08T10:33:21.665Z,3.83
2022-11-08T10:35:29.741Z,3.07
2022-11-08T10:37:34.985Z,4.17
2022-11-08T10:39:44.472Z,2.77
2022-11-08T10:42:00.829Z,5.20
2022-11-08T10:44:07.549Z,4.23
2022-11-08T10:46:21.260Z,4.37
2022-11-08T10:48:24.172Z,2.70
2022-11-08T10:50:36.114Z,2.10
2022-11-08T10:52:45.271Z,4.73
2022-11-08T10:54:50.320Z,2.53
2022-11-08T10:56:56.829Z,5.47
2022-11-08T10:58:59.955Z,2.63
2022-11-08T11:01:06.690Z,3.97
2022-11-08T11:03:28.785Z,4.50
2022-11-08T11:05:35.304Z,5.20
2022-11-08T11:07:38.255Z,3.73
2022-11-08T11:09:42.552Z,2.27
2022-11-08T11:11:45.684Z,3.67
2022-11-08T11:14:08.063Z,3.27
2022-11-08T11:16:15.203Z,2.93
2022-11-08T11:18:27.036Z,3.70
2022-11-08T11:20:31.166Z,5.33
2022-11-08T11:22:35.448Z,3.13
2022-11-08T11:24:51.486Z,2.13
2022-11-08T11:27:07.465Z,3.47
2022-11-08T11:29:19.649Z,2.93
2022-11-08T11:31:22.491Z,5.37
2022-11-08T11:33:26.907Z,3.47
2022-11-08T11:35:37.170Z,4.77
2022-11-08T11:37:43.854Z,3.03
2022-11-08T11:39:58.954Z,3.40
2022-11-08T11:42:23.966Z,4.87
2022-11-08T11:44:32.603Z,3.93
2022-11-08T11:46:46.701Z,4.97
2022-11-08T11:48:56.654Z,2.80
2022-11-08T11:50:59.948Z,2.13
2022-11-08T11:53:06.104Z,2.13
2022-11-08T11:55:15.157Z,3.10
2022-11-08T11:57:27.520Z,1.17
2022-11-08T11:59:51.447Z,2.07
2022-11-08T12:02:15.994Z,3.50
2022-11-08T12:04:52.660Z,2.70
2022-11-08T12:07:05.287Z,3.33
2022-11-08T12:09:28.654Z,2.60
2022-11-08T12:11:46.376Z,5.10
2022-11-08T12:14:03.466Z,4.13
2022-11-08T12:16:16.226Z,1.53
2022-11-08T12:18:45.094Z,3.57
2022-11-08T12:21:01.422Z,2.83
2022-11-08T12:23:29.907Z,2.53
2022-11-08T12:25:37.125Z,2.53
2022-11-08T12:27:56.721Z,3.00
2022-11-08T12:30:06.583Z,2.33
2022-11-08T12:32:23.690Z,3.87
2022-11-08T12:34:36.204Z,2.20
2022-11-08T12:36:48.097Z,2.37
2022-11-08T12:39:04.173Z,2.20
2022-11-08T12:41:16.733Z,2.20
2022-11-08T12:43:35.018Z,5.07
2022-11-08T12:45:53.766Z,2.23
2022-11-08T12:48:04.129Z,2.03
2022-11-08T12:50:21.623Z,1.63
2022-11-08T12:52:42.254Z,2.57
2022-11-08T12:54:49.248Z,3.03
2022-11-08T12:56:56.187Z,1.37
2022-11-08T12:59:01.319Z,2.87
2022-11-08T13:01:07.908Z,1.90
2022-11-08T13:03:31.321Z,2.60
2022-11-08T13:05:40.006Z,1.97
2022-11-08T13:07:48.798Z,3.77
2022-11-08T13:09:59.149Z,3.20
2022-11-08T13:12:11.363Z,2.10
2022-11-08T13:14:17.531Z,1.87
2022-11-08T13:16:22.099Z,2.40
2022-11-08T13:18:34.774Z,1.70
2022-11-08T13:20:42.163Z,1.97
2022-11-08T13:22:59.093Z,2.50
2022-11-08T13:25:03.616Z,1.73
2022-11-08T13:27:31.647Z,4.10
2022-11-08T13:29:40.431Z,2.10
2022-11-08T13:31:50.325Z,1.53
2022-11-08T13:34:07.989Z,1.93
2022-11-08T13:36:23.080Z,2.10
2022-11-08T13:38:35.230Z,4.57
2022-11-08T13:40:48.297Z,1.33
2022-11-08T13:43:13.437Z,2.70
2022-11-08T13:45:35.923Z,2.07
2022-11-08T13:47:57.646Z,2.83
2022-11-08T13:50:42.033Z,3.70
2022-11-08T13:52:47.203Z,2.33
2022-11-08T13:54:53.074Z,2.50
2022-11-08T13:56:56.447Z,1.30
2022-11-08T13:58:59.369Z,4.67
2022-11-08T14:01:04.942Z,3.00
2022-11-08T14:03:41.245Z,3.77
2022-11-08T14:05:47.797Z,1.93
2022-11-08T14:08:08.009Z,3.07
2022-11-08T14:10:21.107Z,2.97
2022-11-08T14:12:32.027Z,1.80
2022-11-08T14:14:51.153Z,2.67
2022-11-08T14:17:13.547Z,3.30
2022-11-08T14:19:23.432Z,3.30
2022-11-08T14:21:26.382Z,1.80
2022-11-08T14:23:32.427Z,2.37
2022-11-08T14:25:36.734Z,3.30
2022-11-08T14:27:41.530Z,4.43
2022-11-08T14:29:44.447Z,2.30
2022-11-08T14:31:47.834Z,1.77
2022-11-08T14:33:52.279Z,2.47
2022-11-08T14:35:58.049Z,2.67
2022-11-08T14:38:01.134Z,1.83
2022-11-08T14:40:05.567Z,1.40
2022-11-08T14:42:21.512Z,5.83
2022-11-08T14:44:25.572Z,4.20
2022-11-08T14:46:32.772Z,3.30
2022-11-08T14:48:37.856Z,3.43
2022-11-08T14:50:42.024Z,2.40
2022-11-08T14:52:45.022Z,3.37
2022-11-08T14:54:49.810Z,3.30
2022-11-08T14:56:53.217Z,3.70
2022-11-08T14:58:56.917Z,2.70
2022-11-08T15:01:01.399Z,3.23
2022-11-08T15:03:06.513Z,4.87
2022-11-08T15:05:28.020Z,4.33
2022-11-08T15:07:33.300Z,3.30
2022-11-08T15:09:36.809Z,4.47
2022-11-08T15:11:43.444Z,7.17
2022-11-08T15:13:51.287Z,3.10
2022-11-08T15:15:56.454Z,4.13
2022-11-08T15:18:17.307Z,4.37
2022-11-08T15:20:23.447Z,2.10
2022-11-08T15:22:30.684Z,5.30
2022-11-08T15:24:39.817Z,2.97
2022-11-08T15:27:01.709Z,3.00
2022-11-08T15:29:08.005Z,3.20
2022-11-08T15:31:15.048Z,2.33
2022-11-08T15:33:23.662Z,2.17
2022-11-08T15:35:33.734Z,2.73
2022-11-08T15:37:38.510Z,4.00
2022-11-08T15:39:43.675Z,2.03
2022-11-08T15:42:00.381Z,3.37
2022-11-08T15:44:15.422Z,1.83
2022-11-08T15:46:29.633Z,2.80
2022-11-08T15:48:33.364Z,4.83
2022-11-08T15:50:36.513Z,4.50
2022-11-08T15:52:39.444Z,7.40
2022-11-08T15:54:43.720Z,5.13
2022-11-08T15:56:47.548Z,3.60
2022-11-08T15:58:50.539Z,4.17
2022-11-08T16:00:53.754Z,7.30
2022-11-08T16:02:57.355Z,6.90
2022-11-08T16:05:00.228Z,2.70
2022-11-08T16:07:03.206Z,3.03
2022-11-08T16:09:06.172Z,3.43
2022-11-08T16:11:16.626Z,2.90
2022-11-08T16:13:23.035Z,4.23
2022-11-08T16:15:27.186Z,3.03
2022-11-08T16:17:30.096Z,4.60
2022-11-08T16:19:32.993Z,2.83
2022-11-08T16:21:35.847Z,3.77
2022-11-08T16:23:38.978Z,4.27
2022-11-08T16:25:44.853Z,2.50
2022-11-08T16:27:54.172Z,3.53
2022-11-08T16:29:57.118Z,3.87
2022-11-08T16:32:00.164Z,2.87
2022-11-08T16:34:03.043Z,3.43
2022-11-08T16:36:14.164Z,6.03
2022-11-08T16:38:19.748Z,3.83
2022-11-08T16:40:25.285Z,4.63
2022-11-08T16:42:28.140Z,5.83
2022-11-08T16:44:32.315Z,6.37
2022-11-08T16:46:35.264Z,2.70
2022-11-08T16:48:40.508Z,4.20
2022-11-08T16:50:43.518Z,2.30
2022-11-08T16:52:46.474Z,3.00
2022-11-08T16:54:49.345Z,3.30
2022-11-08T16:57:03.436Z,4.67
2022-11-08T16:59:15.721Z,3.40
2022-11-08T17:01:23.777Z,2.13
2022-11-08T17:03:29.612Z,3.60
2022-11-08T17:05:32.762Z,2.60
2022-11-08T17:07:35.968Z,12.10
2022-11-08T17:09:38.840Z,7.37
2022-11-08T17:11:41.816Z,3.13
2022-11-08T17:13:44.718Z,3.10
2022-11-08T17:15:48.133Z,3.57
2022-11-08T17:17:54.530Z,2.93
2022-11-08T17:19:57.614Z,2.70
2022-11-08T17:22:00.454Z,2.17
2022-11-08T17:24:03.366Z,4.07
2022-11-08T17:26:07.097Z,3.00
2022-11-08T17:28:10.306Z,4.47
2022-11-08T17:30:15.203Z,6.13
2022-11-08T17:32:18.003Z,5.70
2022-11-08T17:34:22.271Z,4.17
2022-11-08T17:36:25.358Z,5.53
2022-11-08T17:38:28.264Z,7.23
2022-11-08T17:40:31.214Z,2.80
2022-11-08T17:42:37.313Z,1.70
2022-11-08T17:44:41.330Z,2.73
2022-11-08T17:46:44.280Z,4.10
2022-11-08T17:48:48.176Z,2.70
2022-11-08T17:50:52.620Z,2.37
2022-11-08T17:52:55.858Z,2.37
2022-11-08T17:54:58.852Z,3.07
2022-11-08T17:57:02.330Z,4.07
2022-11-08T17:59:05.277Z,3.03
2022-11-08T18:01:08.390Z,2.47
2022-11-08T18:03:13.088Z,2.03
2022-11-08T18:05:16.069Z,2.80
2022-11-08T18:07:20.691Z,3.97
2022-11-08T18:09:24.366Z,2.80
2022-11-08T18:11:27.198Z,3.17
2022-11-08T18:13:30.304Z,3.03
2022-11-08T18:15:33.300Z,3.37
2022-11-08T18:17:39.018Z,4.73
2022-11-08T18:19:44.079Z,2.97
2022-11-08T18:21:47.094Z,5.43
2022-11-08T18:23:51.588Z,3.80
2022-11-08T18:25:56.127Z,4.50
2022-11-08T18:27:59.083Z,2.13
2022-11-08T18:30:01.932Z,6.70
2022-11-08T18:32:05.321Z,5.47
2022-11-08T18:34:08.200Z,4.80
2022-11-08T18:36:13.578Z,2.90
2022-11-08T18:38:16.459Z,4.37
2022-11-08T18:40:20.673Z,2.73
2022-11-08T18:42:24.121Z,4.67
2022-11-08T18:44:27.114Z,5.67
2022-11-08T18:46:40.261Z,4.80
2022-11-08T18:48:45.668Z,3.00
2022-11-08T18:50:51.274Z,2.47
2022-11-08T18:52:54.217Z,3.30
2022-11-08T18:54:57.191Z,2.83
2022-11-08T18:57:01.453Z,2.33
2022-11-08T18:59:04.525Z,3.33
2022-11-08T19:01:07.982Z,1.47
2022-11-08T19:03:10.833Z,2.53
2022-11-08T19:05:14.181Z,4.23
2022-11-08T19:07:17.163Z,2.03
2022-11-08T19:09:20.194Z,3.17
2022-11-08T19:11:23.160Z,1.87
2022-11-08T19:13:30.530Z,3.90
2022-11-08T19:15:33.449Z,2.03
2022-11-08T19:17:36.436Z,5.53
2022-11-08T19:19:39.311Z,2.53
2022-11-08T19:21:43.569Z,2.67
2022-11-08T19:23:47.436Z,2.97
2022-11-08T19:25:55.690Z,2.43
2022-11-08T19:27:58.985Z,3.13
2022-11-08T19:30:03.482Z,2.03
2022-11-08T19:32:06.765Z,2.50
2022-11-08T19:34:09.929Z,1.93
2022-11-08T19:36:15.502Z,5.27
2022-11-08T19:38:18.827Z,5.97
2022-11-08T19:40:21.969Z,2.60
2022-11-08T19:42:24.969Z,4.07
2022-11-08T19:44:28.174Z,3.90
2022-11-08T19:46:33.851Z,2.40
2022-11-08T19:48:38.331Z,5.20
2022-11-08T19:50:43.358Z,6.73
2022-11-08T19:52:46.300Z,4.03
2022-11-08T19:54:50.218Z,7.97
2022-11-08T19:57:08.498Z,3.00
2022-11-08T19:59:11.527Z,4.70
2022-11-08T20:01:17.729Z,3.30
2022-11-08T20:03:22.139Z,3.40
2022-11-08T20:05:25.088Z,3.03
2022-11-08T20:07:28.231Z,2.23
2022-11-08T20:09:35.502Z,2.90
2022-11-08T20:11:40.398Z,3.30
2022-11-08T20:13:43.727Z,3.90
2022-11-08T20:15:46.636Z,2.97
2022-11-08T20:17:49.511Z,2.87
2022-11-08T20:19:54.179Z,2.73
2022-11-08T20:21:57.374Z,3.67
2022-11-08T20:24:06.611Z,4.40
2022-11-08T20:26:15.657Z,4.83
2022-11-08T20:28:27.198Z,3.67
2022-11-08T20:30:31.760Z,3.07
2022-11-08T20:32:36.890Z,3.17
2022-11-08T20:34:41.236Z,2.90
2022-11-08T20:36:46.208Z,3.07
2022-11-08T20:38:49.477Z,4.13
2022-11-08T20:40:54.751Z,4.73
2022-11-08T20:42:57.674Z,3.03
2022-11-08T20:45:00.641Z,2.80
2022-11-08T20:47:06.647Z,2.87
2022-11-08T20:49:10.237Z,4.40
2022-11-08T20:51:14.676Z,3.00
2022-11-08T20:53:22.193Z,2.37
2022-11-08T20:55:27.233Z,2.83
2022-11-08T20:57:30.334Z,4.67
2022-11-08T20:59:33.334Z,5.50
2022-11-08T21:01:36.524Z,3.80
2022-11-08T21:03:39.764Z,2.70
2022-11-08T21:05:51.422Z,3.63
2022-11-08T21:08:19.250Z,5.70
2022-11-08T21:12:43.301Z,4.43
2022-11-08T21:14:46.269Z,3.97
2022-11-08T21:19:12.384Z,2.20
2022-11-08T21:21:16.429Z,2.80
2022-11-08T21:23:20.274Z,3.00
2022-11-08T21:25:25.334Z,4.90
2022-11-08T21:27:29.893Z,4.23
2022-11-08T21:29:33.126Z,3.57
2022-11-08T21:31:36.076Z,3.80
2022-11-08T21:33:40.034Z,4.17
2022-11-08T21:35:42.927Z,12.17
2022-11-08T21:37:45.921Z,5.67
2022-11-08T21:39:49.009Z,6.83
2022-11-08T21:41:53.592Z,4.50
2022-11-08T21:43:56.550Z,19.47
2022-11-08T21:45:59.417Z,12.57
2022-11-08T21:48:02.276Z,20.00
2022-11-08T21:50:05.903Z,20.30
2022-11-08T21:52:08.864Z,36.20
2022-11-08T21:54:12.093Z,11.90
2022-11-08T21:56:15.005Z,8.07
2022-11-08T21:58:19.856Z,15.37
2022-11-08T22:00:23.389Z,12.77
2022-11-08T22:02:26.282Z,19.27
2022-11-08T22:04:29.187Z,8.80
2022-11-08T22:06:32.120Z,9.37
2022-11-08T22:08:35.072Z,2.93
2022-11-08T22:10:38.096Z,4.20
2022-11-08T22:12:41.211Z,4.27
2022-11-08T22:14:46.570Z,4.00
2022-11-08T22:16:50.604Z,3.40
2022-11-08T22:19:09.331Z,3.30
2022-11-08T22:21:30.104Z,3.87
2022-11-08T22:23:33.063Z,4.63
2022-11-08T22:25:35.968Z,4.60
2022-11-08T22:27:38.866Z,2.33
2022-11-08T22:29:41.878Z,2.37
2022-11-08T22:31:46.743Z,2.80
2022-11-08T22:33:49.951Z,4.63
2022-11-08T22:35:52.840Z,4.93
2022-11-08T22:37:55.687Z,5.63
2022-11-08T22:39:58.595Z,3.50
2022-11-08T22:42:01.402Z,3.00
2022-11-08T22:44:10.535Z,4.60
2022-11-08T22:46:15.826Z,4.07
2022-11-08T22:48:20.885Z,2.33
2022-11-08T22:50:23.786Z,1.97
2022-11-08T22:52:26.649Z,2.37
2022-11-08T22:54:29.603Z,2.90
2022-11-08T22:56:32.906Z,5.33
2022-11-08T22:58:35.921Z,3.40
2022-11-08T23:00:38.802Z,3.40
2022-11-08T23:02:41.614Z,4.50
2022-11-08T23:04:46.137Z,3.80
2022-11-08T23:06:49.111Z,2.47
2022-11-08T23:08:52.046Z,2.30
2022-11-08T23:11:12.769Z,4.63
2022-11-08T23:13:33.132Z,4.50
2022-11-08T23:15:54.089Z,1.97
2022-11-08T23:17:57.007Z,2.13
2022-11-08T23:20:18.417Z,2.50
2022-11-08T23:22:39.251Z,5.13
2022-11-08T23:24:42.929Z,4.00
2022-11-08T23:27:11.764Z,2.33
2022-11-08T23:29:32.118Z,2.90
2022-11-08T23:31:37.769Z,3.63
2022-11-08T23:33:43.980Z,3.13
2022-11-08T23:36:02.117Z,3.87
2022-11-08T23:38:04.957Z,2.77
2022-11-08T23:40:27.155Z,2.07
2022-11-08T23:42:47.699Z,2.63
2022-11-08T23:44:50.562Z,2.97
2022-11-08T23:46:54.008Z,2.97
2022-11-08T23:48:56.916Z,3.93
2022-11-08T23:51:01.545Z,3.47
2022-11-08T23:53:04.484Z,3.90
2022-11-08T23:55:08.221Z,1.97
2022-11-08T23:57:11.140Z,2.93
2022-11-08T23:59:15.530Z,1.60
